createdAt,value
2019-01-12T12:40:27.625Z,22.22
2019-01-12T12:42:55.868Z,22.93
2019-01-12T12:45:30.408Z,25.20
2019-01-12T12:47:58.385Z,20.82
2019-01-12T12:50:44.725Z,25.10
2019-01-12T12:53:12.935Z,26.07
2019-01-12T12:55:40.874Z,22.70
2019-01-12T12:58:08.767Z,25.72
2019-01-12T13:05:41.065Z,25.05
2019-01-12T13:10:44.071Z,26.85
2019-01-12T13:15:47.224Z,22.93
2019-01-12T13:20:50.301Z,22.52
2019-01-12T13:25:53.358Z,26.45
2019-01-12T13:30:56.334Z,28.10
2019-01-12T13:35:59.496Z,23.62
2019-01-12T13:41:02.433Z,25.77
2019-01-12T13:46:06.288Z,20.32
2019-01-12T13:51:09.189Z,27.58
2019-01-12T13:56:12.217Z,19.92
2019-01-12T14:01:16.222Z,21.68
2019-01-12T14:06:19.663Z,26.55
2019-01-12T14:11:24.360Z,22.02
2019-01-12T14:16:28.735Z,21.97
2019-01-12T14:21:32.378Z,23.42
2019-01-12T14:26:35.501Z,23.22
2019-01-12T14:31:38.461Z,21.05
2019-01-12T14:36:41.823Z,22.40
2019-01-12T14:41:46.628Z,20.35
2019-01-12T14:46:49.714Z,16.37
2019-01-12T14:51:52.856Z,16.37
2019-01-12T14:56:55.828Z,21.27
2019-01-12T15:01:59.312Z,21.60
2019-01-12T15:07:02.445Z,17.65
2019-01-12T15:12:05.357Z,18.32
2019-01-12T15:17:08.945Z,19.20
2019-01-12T15:22:11.909Z,19.67
2019-01-12T15:27:14.851Z,19.17
2019-01-12T15:32:17.725Z,16.70
2019-01-12T15:37:20.841Z,15.43
2019-01-12T15:42:23.962Z,23.40
2019-01-12T15:47:26.968Z,19.27
2019-01-12T15:52:29.947Z,23.90
2019-01-12T15:57:33.445Z,13.83
2019-01-12T16:02:40.016Z,20.32
2019-01-12T16:07:41.820Z,21.57
2019-01-12T16:12:45.255Z,21.05
2019-01-12T16:17:49.154Z,24.87
2019-01-12T16:22:52.654Z,23.50
2019-01-12T16:27:56.068Z,15.25
2019-01-12T16:32:59.128Z,20.43
2019-01-12T16:38:02.663Z,17.73
2019-01-12T16:43:06.009Z,22.17
2019-01-12T16:48:09.200Z,21.27
2019-01-12T16:53:12.473Z,15.18
2019-01-12T16:58:15.514Z,18.12
2019-01-12T17:03:18.689Z,19.73
2019-01-12T17:08:21.610Z,15.30
2019-01-12T17:13:25.026Z,12.45
2019-01-12T17:18:28.072Z,13.85
2019-01-12T17:23:31.248Z,20.92
2019-01-12T17:28:37.437Z,19.67
2019-01-12T17:33:38.887Z,19.80
2019-01-12T17:38:41.790Z,23.35
2019-01-12T17:43:44.689Z,16.05
2019-01-12T17:48:47.722Z,15.13
2019-01-12T17:53:50.745Z,15.13
2019-01-12T17:58:53.641Z,17.85
2019-01-12T18:03:56.494Z,22.77
2019-01-12T18:08:59.617Z,17.12
2019-01-12T18:14:02.530Z,21.45
2019-01-12T18:19:05.395Z,17.85
2019-01-12T18:24:26.737Z,20.70
2019-01-12T18:29:29.667Z,24.12
2019-01-12T18:34:32.601Z,21.48
2019-01-12T18:39:36.127Z,18.57
2019-01-12T18:44:39.146Z,20.30
2019-01-12T18:49:42.087Z,19.45
2019-01-12T18:54:45.124Z,13.48
2019-01-12T18:59:48.170Z,16.00
2019-01-12T19:04:51.499Z,15.83
2019-01-12T19:09:54.772Z,19.85
2019-01-12T19:14:57.880Z,15.03
2019-01-12T19:20:02.749Z,21.82
2019-01-12T19:25:06.364Z,14.10
2019-01-12T19:30:13.516Z,21.40
2019-01-12T19:35:16.462Z,23.32
2019-01-12T19:40:22.356Z,20.35
2019-01-12T19:45:25.297Z,12.98
2019-01-12T19:50:28.564Z,29.40
2019-01-12T19:55:31.473Z,23.92
2019-01-12T20:00:34.595Z,21.27
2019-01-12T20:05:37.970Z,25.27
2019-01-12T20:10:40.918Z,16.60
2019-01-12T20:15:43.845Z,15.95
2019-01-12T20:20:46.780Z,23.85
2019-01-12T20:25:49.723Z,16.07
2019-01-12T20:31:33.391Z,18.50
2019-01-12T20:37:46.970Z,14.78
2019-01-12T20:43:41.945Z,21.07
2019-01-12T20:49:28.339Z,19.50
2019-01-12T20:55:15.185Z,21.55
2019-01-12T21:00:57.318Z,22.93
2019-01-12T21:06:55.656Z,27.27
2019-01-12T21:13:03.554Z,18.37
2019-01-12T21:18:06.735Z,21.50
2019-01-12T21:23:09.968Z,23.00
2019-01-12T21:28:13.329Z,19.48
2019-01-12T21:33:16.211Z,23.12
2019-01-12T21:38:19.115Z,24.77
2019-01-12T21:43:22.116Z,18.73
2019-01-12T21:48:25.020Z,21.68
2019-01-12T21:53:28.024Z,18.77
2019-01-12T21:58:30.883Z,17.90
2019-01-12T22:03:33.754Z,19.25
2019-01-12T22:08:36.792Z,19.75
2019-01-12T22:13:39.766Z,18.37
2019-01-12T22:18:42.694Z,21.55
2019-01-12T22:23:45.565Z,22.85
2019-01-12T22:28:48.467Z,26.68
2019-01-12T22:33:51.352Z,24.35
2019-01-12T22:38:54.340Z,23.47
2019-01-12T22:43:57.603Z,30.40
2019-01-12T22:49:00.648Z,26.07
2019-01-12T22:54:03.867Z,26.85
2019-01-12T22:59:06.736Z,27.27
2019-01-12T23:04:10.058Z,36.15
2019-01-12T23:09:14.611Z,31.75
2019-01-12T23:14:17.513Z,31.42
2019-01-12T23:19:20.412Z,29.25
2019-01-12T23:24:23.474Z,25.97
2019-01-12T23:29:29.429Z,33.20
2019-01-12T23:34:32.528Z,33.00
2019-01-12T23:39:35.495Z,37.30
2019-01-12T23:44:38.493Z,36.17
2019-01-12T23:49:41.441Z,31.05
2019-01-12T23:54:44.354Z,32.10
2019-01-12T23:59:47.311Z,35.63
